createdAt,value
2022-07-26T00:00:20.576Z,20.20
2022-07-26T00:05:24.427Z,20.20
2022-07-26T00:10:28.550Z,20.20
2022-07-26T00:15:34.072Z,20.20
2022-07-26T00:20:37.946Z,20.10
2022-07-26T00:25:42.839Z,20.10
2022-07-26T00:30:48.056Z,20.10
2022-07-26T00:35:51.874Z,20.10
2022-07-26T00:40:55.673Z,20.10
2022-07-26T00:46:00.953Z,20.00
2022-07-26T00:51:04.972Z,20.00
2022-07-26T00:56:08.696Z,20.00
2022-07-26T01:01:14.184Z,20.00
2022-07-26T01:06:17.980Z,20.00
2022-07-26T01:11:21.786Z,20.00
2022-07-26T01:16:27.015Z,20.00
2022-07-26T01:21:33.476Z,20.00
2022-07-26T01:26:37.174Z,20.00
2022-07-26T01:31:41.352Z,20.00
2022-07-26T01:36:47.008Z,19.90
2022-07-26T01:41:50.755Z,19.90
2022-07-26T01:46:54.509Z,19.90
2022-07-26T01:52:00.886Z,19.90
2022-07-26T01:57:04.916Z,19.90
2022-07-26T02:02:08.763Z,19.90
2022-07-26T02:07:14.043Z,19.90
2022-07-26T02:12:18.135Z,19.80
2022-07-26T02:17:22.050Z,19.80
2022-07-26T02:22:27.241Z,19.70
2022-07-26T02:27:31.024Z,19.80
2022-07-26T02:32:36.394Z,19.80
2022-07-26T02:37:43.725Z,19.70
2022-07-26T02:42:47.846Z,19.70
2022-07-26T02:47:53.298Z,19.70
2022-07-26T02:52:58.859Z,19.70
2022-07-26T02:58:02.566Z,19.70
2022-07-26T03:03:06.348Z,19.70
2022-07-26T03:08:11.633Z,19.70
2022-07-26T03:13:15.524Z,19.70
2022-07-26T03:18:19.370Z,19.70
2022-07-26T03:23:24.550Z,19.70
2022-07-26T03:28:31.280Z,19.70
2022-07-26T03:33:34.868Z,19.70
2022-07-26T03:38:40.097Z,19.80
2022-07-26T03:43:43.782Z,19.70
2022-07-26T03:48:47.604Z,19.70
2022-07-26T03:53:53.113Z,19.70
2022-07-26T03:58:57.391Z,19.70
2022-07-26T04:04:01.440Z,19.70
2022-07-26T04:09:08.215Z,19.70
2022-07-26T04:14:12.379Z,19.70
2022-07-26T04:19:16.355Z,19.70
2022-07-26T04:24:21.449Z,19.60
2022-07-26T04:29:29.323Z,19.60
2022-07-26T04:34:33.314Z,19.70
2022-07-26T04:39:38.531Z,19.60
2022-07-26T04:44:42.233Z,19.60
2022-07-26T04:49:45.932Z,19.70
2022-07-26T04:54:53.411Z,19.70
2022-07-26T05:00:10.155Z,19.60
2022-07-26T05:05:21.171Z,19.60
2022-07-26T05:10:31.906Z,19.70
2022-07-26T05:15:36.663Z,19.60
2022-07-26T05:20:40.466Z,19.60
2022-07-26T05:25:45.569Z,19.60
2022-07-26T05:30:51.979Z,19.60
2022-07-26T05:35:55.999Z,19.60
2022-07-26T05:41:01.158Z,19.60
2022-07-26T05:46:09.466Z,19.60
2022-07-26T05:51:13.607Z,19.60
2022-07-26T05:56:18.753Z,19.70
2022-07-26T06:01:22.439Z,19.70
2022-07-26T06:06:28.107Z,19.70
2022-07-26T06:11:33.318Z,19.60
2022-07-26T06:16:37.176Z,19.60
2022-07-26T06:21:42.183Z,19.60
2022-07-26T06:26:54.762Z,19.60
2022-07-26T06:32:00.520Z,19.60
2022-07-26T06:37:04.484Z,19.50
2022-07-26T06:42:09.591Z,19.60
2022-07-26T06:47:14.112Z,19.70
2022-07-26T06:52:17.816Z,19.80
2022-07-26T06:57:22.937Z,19.80
2022-07-26T07:02:26.899Z,19.90
2022-07-26T07:07:30.537Z,19.90
2022-07-26T07:12:38.042Z,20.00
2022-07-26T07:17:41.912Z,20.10
2022-07-26T07:22:45.553Z,20.10
2022-07-26T07:27:50.696Z,20.20
2022-07-26T07:32:55.672Z,20.30
2022-07-26T07:38:00.579Z,20.30
2022-07-26T07:43:05.816Z,20.30
2022-07-26T07:48:09.677Z,20.40
2022-07-26T07:53:13.699Z,20.30
2022-07-26T07:58:19.138Z,20.20
2022-07-26T08:03:23.315Z,20.20
2022-07-26T08:08:42.147Z,20.20
2022-07-26T08:13:48.342Z,20.20
2022-07-26T08:18:57.334Z,20.20
2022-07-26T08:24:02.002Z,20.30
2022-07-26T08:29:07.227Z,20.30
2022-07-26T08:34:11.014Z,20.40
2022-07-26T08:39:15.372Z,20.50
2022-07-26T08:44:20.589Z,20.60
2022-07-26T08:49:24.492Z,20.60
2022-07-26T08:54:28.281Z,20.60
2022-07-26T08:59:50.681Z,20.60
2022-07-26T09:05:11.060Z,20.70
2022-07-26T09:10:16.987Z,20.70
2022-07-26T09:15:24.131Z,20.80
2022-07-26T09:20:29.912Z,20.80
2022-07-26T09:25:35.023Z,20.80
2022-07-26T09:30:52.503Z,20.80
2022-07-26T09:36:03.628Z,20.70
2022-07-26T09:41:19.314Z,20.70
2022-07-26T09:46:26.195Z,20.70
2022-07-26T09:51:38.619Z,20.70
2022-07-26T09:56:48.261Z,20.70
2022-07-26T10:01:54.781Z,20.70
2022-07-26T10:06:59.067Z,20.70
2022-07-26T10:12:06.748Z,20.80
2022-07-26T10:17:47.093Z,20.80
2022-07-26T10:22:54.805Z,20.80
2022-07-26T10:27:59.480Z,20.70
2022-07-26T10:33:07.649Z,20.70
2022-07-26T10:38:14.955Z,20.70
2022-07-26T10:48:58.239Z,20.60
2022-07-26T10:54:07.729Z,20.60
2022-07-26T10:59:11.871Z,20.70
2022-07-26T11:04:19.865Z,20.90
2022-07-26T11:09:24.895Z,21.10
2022-07-26T11:14:28.679Z,21.40
2022-07-26T11:19:32.676Z,21.50
2022-07-26T11:24:41.619Z,21.60
2022-07-26T11:29:49.122Z,21.50
2022-07-26T11:35:02.563Z,21.50
2022-07-26T11:40:08.951Z,21.40
2022-07-26T11:45:16.422Z,21.40
2022-07-26T11:50:23.071Z,21.30
2022-07-26T11:55:30.146Z,21.20
2022-07-26T12:00:33.737Z,21.00
2022-07-26T12:05:37.617Z,20.90
2022-07-26T12:10:42.859Z,20.80
2022-07-26T12:15:48.950Z,20.70
2022-07-26T12:21:04.967Z,20.60
2022-07-26T12:26:25.604Z,20.50
2022-07-26T12:31:31.743Z,20.50
2022-07-26T12:36:36.045Z,20.50
2022-07-26T12:41:41.593Z,20.50
2022-07-26T12:46:45.907Z,20.60
2022-07-26T12:51:49.900Z,20.60
2022-07-26T12:56:55.037Z,20.60
2022-07-26T13:02:00.108Z,20.60
2022-07-26T13:07:04.452Z,20.70
2022-07-26T13:12:11.400Z,20.70
2022-07-26T13:17:15.257Z,20.70
2022-07-26T13:22:19.284Z,20.70
2022-07-26T13:27:35.930Z,20.80
2022-07-26T13:32:40.534Z,20.90
2022-07-26T13:37:44.229Z,20.90
2022-07-26T13:42:50.982Z,20.90
2022-07-26T13:47:54.565Z,20.90
2022-07-26T13:52:58.402Z,20.90
2022-07-26T13:58:09.490Z,20.90
2022-07-26T14:03:14.059Z,20.90
2022-07-26T14:08:18.013Z,20.90
2022-07-26T14:13:23.120Z,20.90
2022-07-26T14:18:26.846Z,21.00
2022-07-26T14:23:30.637Z,21.00
2022-07-26T14:28:35.792Z,21.00
2022-07-26T14:33:39.686Z,21.00
2022-07-26T14:38:44.325Z,21.10
2022-07-26T14:43:54.293Z,21.10
2022-07-26T14:48:59.760Z,21.20
2022-07-26T14:54:03.685Z,21.20
2022-07-26T14:59:08.798Z,21.30
2022-07-26T15:04:13.134Z,21.30
2022-07-26T15:09:17.121Z,21.30
2022-07-26T15:14:22.278Z,21.40
2022-07-26T15:19:28.578Z,21.40
2022-07-26T15:24:36.407Z,21.50
2022-07-26T15:29:44.670Z,21.50
2022-07-26T15:34:48.422Z,21.50
2022-07-26T15:39:52.140Z,21.50
2022-07-26T15:44:57.383Z,21.50
2022-07-26T15:50:01.170Z,21.60
2022-07-26T15:55:05.208Z,21.60
2022-07-26T16:00:12.537Z,21.60
2022-07-26T16:05:16.485Z,21.50
2022-07-26T16:10:20.238Z,21.50
2022-07-26T16:15:25.790Z,21.40
2022-07-26T16:20:29.528Z,21.40
2022-07-26T16:25:33.323Z,21.40
2022-07-26T16:30:38.654Z,21.40
2022-07-26T16:35:42.857Z,21.40
2022-07-26T16:40:46.699Z,21.30
2022-07-26T16:45:51.749Z,21.30
2022-07-26T16:50:55.516Z,21.20
2022-07-26T16:55:59.193Z,21.30
2022-07-26T17:01:04.535Z,21.20
2022-07-26T17:06:09.030Z,21.10
2022-07-26T17:11:12.760Z,21.10
2022-07-26T17:16:21.389Z,21.10
2022-07-26T17:21:28.594Z,21.00
2022-07-26T17:26:32.306Z,21.00
2022-07-26T17:31:41.553Z,21.00
2022-07-26T17:36:46.649Z,21.00
2022-07-26T17:41:50.467Z,21.00
2022-07-26T17:46:58.572Z,21.00
2022-07-26T17:52:02.390Z,20.90
2022-07-26T17:57:06.758Z,20.80
2022-07-26T18:02:12.017Z,20.80
2022-07-26T18:07:15.965Z,20.80
2022-07-26T18:12:19.802Z,20.70
2022-07-26T18:17:25.126Z,20.70
2022-07-26T18:22:28.881Z,20.60
2022-07-26T18:27:32.793Z,20.50
2022-07-26T18:32:37.979Z,20.50
2022-07-26T18:37:41.795Z,20.40
2022-07-26T18:42:46.016Z,20.30
2022-07-26T18:47:51.214Z,20.30
2022-07-26T18:52:57.375Z,20.20
2022-07-26T18:58:06.525Z,20.20
2022-07-26T19:03:12.373Z,20.10
2022-07-26T19:08:16.296Z,20.10
2022-07-26T19:13:19.996Z,20.10
2022-07-26T19:18:25.105Z,20.00
2022-07-26T19:23:28.851Z,19.90
2022-07-26T19:28:34.281Z,19.90
2022-07-26T19:33:39.636Z,19.80
2022-07-26T19:38:45.907Z,19.80
2022-07-26T19:43:50.531Z,19.70
2022-07-26T19:48:57.333Z,19.70
2022-07-26T19:54:01.095Z,19.60
2022-07-26T19:59:04.972Z,19.60
2022-07-26T20:04:10.055Z,19.50
2022-07-26T20:09:14.116Z,19.50
2022-07-26T20:14:18.293Z,19.50
2022-07-26T20:25:58.828Z,19.40
2022-07-26T20:31:06.017Z,19.30
2022-07-26T20:36:13.212Z,19.30
2022-07-26T20:41:25.747Z,19.30
2022-07-26T20:46:35.059Z,19.20
2022-07-26T20:51:42.688Z,19.20
2022-07-26T20:56:48.876Z,19.10
2022-07-26T21:01:52.773Z,19.10
2022-07-26T21:06:56.598Z,19.10
2022-07-26T21:12:01.753Z,19.10
2022-07-26T21:17:10.941Z,19.00
2022-07-26T21:22:15.185Z,19.00
2022-07-26T21:27:20.305Z,18.90
2022-07-26T21:32:27.190Z,18.90
2022-07-26T21:37:34.949Z,18.90
2022-07-26T21:42:40.106Z,18.90
2022-07-26T21:47:43.869Z,18.80
2022-07-26T21:52:47.713Z,18.70
2022-07-26T21:57:53.019Z,18.70
2022-07-26T22:02:56.688Z,18.70
2022-07-26T22:08:00.394Z,18.60
2022-07-26T22:13:07.112Z,18.50
2022-07-26T22:18:11.048Z,18.50
2022-07-26T22:23:15.117Z,18.40
2022-07-26T22:28:20.301Z,18.40
2022-07-26T22:33:24.969Z,18.40
2022-07-26T22:38:28.754Z,18.30
2022-07-26T22:43:33.837Z,18.30
2022-07-26T22:48:38.944Z,18.20
2022-07-26T22:53:43.590Z,18.10
2022-07-26T22:58:48.701Z,18.10
2022-07-26T23:03:52.466Z,18.10
2022-07-26T23:08:56.218Z,18.00
2022-07-26T23:14:01.706Z,17.90
2022-07-26T23:19:05.689Z,17.90
2022-07-26T23:24:09.371Z,17.90
2022-07-26T23:29:14.776Z,17.80
2022-07-26T23:34:18.779Z,17.80
2022-07-26T23:39:23.097Z,17.70
2022-07-26T23:44:28.247Z,17.70
2022-07-26T23:49:32.114Z,17.70
2022-07-26T23:54:35.781Z,17.70
2022-07-26T23:59:40.847Z,17.70
